sensor_id;sensor_type;location;lat;lon;timestamp;P1;durP1;ratioP1;P2;durP2;ratioP2
73642;SDS011;61938;48.652;9.292;2023-11-22T00:00:52;23.25;;;10.13;;
73642;SDS011;61938;48.652;9.292;2023-11-22T00:03:17;27.75;;;11.02;;
73642;SDS011;61938;48.652;9.292;2023-11-22T00:05:44;25.20;;;11.13;;
73642;SDS011;61938;48.652;9.292;2023-11-22T00:08:09;27.60;;;10.85;;
73642;SDS011;61938;48.652;9.292;2023-11-22T00:10:34;25.80;;;9.88;;
73642;SDS011;61938;48.652;9.292;2023-11-22T00:13:00;24.70;;;10.20;;
73642;SDS011;61938;48.652;9.292;2023-11-22T00:15:26;22.92;;;11.27;;
73642;SDS011;61938;48.652;9.292;2023-11-22T00:17:52;27.30;;;12.38;;
73642;SDS011;61938;48.652;9.292;2023-11-22T00:20:18;23.30;;;10.02;;
73642;SDS011;61938;48.652;9.292;2023-11-22T00:22:44;25.70;;;11.05;;
73642;SDS011;61938;48.652;9.292;2023-11-22T00:25:10;21.95;;;10.95;;
73642;SDS011;61938;48.652;9.292;2023-11-22T00:27:38;18.50;;;9.68;;
73642;SDS011;61938;48.652;9.292;2023-11-22T00:30:04;32.10;;;11.00;;
73642;SDS011;61938;48.652;9.292;2023-11-22T00:32:29;21.33;;;10.00;;
73642;SDS011;61938;48.652;9.292;2023-11-22T00:34:55;25.23;;;11.00;;
73642;SDS011;61938;48.652;9.292;2023-11-22T00:37:21;22.20;;;10.70;;
73642;SDS011;61938;48.652;9.292;2023-11-22T00:39:46;23.38;;;10.65;;
73642;SDS011;61938;48.652;9.292;2023-11-22T00:42:12;26.45;;;10.70;;
73642;SDS011;61938;48.652;9.292;2023-11-22T00:44:37;24.40;;;10.18;;
73642;SDS011;61938;48.652;9.292;2023-11-22T00:47:03;12.85;;;6.68;;
73642;SDS011;61938;48.652;9.292;2023-11-22T00:49:28;10.15;;;4.68;;
73642;SDS011;61938;48.652;9.292;2023-11-22T00:51:54;8.07;;;4.47;;
73642;SDS011;61938;48.652;9.292;2023-11-22T00:54:19;6.80;;;4.00;;
73642;SDS011;61938;48.652;9.292;2023-11-22T00:56:45;6.68;;;3.38;;
73642;SDS011;61938;48.652;9.292;2023-11-22T00:59:11;7.55;;;3.45;;
73642;SDS011;61938;48.652;9.292;2023-11-22T01:01:37;5.50;;;3.45;;
73642;SDS011;61938;48.652;9.292;2023-11-22T01:04:02;6.03;;;3.28;;
73642;SDS011;61938;48.652;9.292;2023-11-22T01:06:29;4.55;;;3.42;;
73642;SDS011;61938;48.652;9.292;2023-11-22T01:08:57;5.05;;;3.35;;
73642;SDS011;61938;48.652;9.292;2023-11-22T01:11:22;5.00;;;3.20;;
73642;SDS011;61938;48.652;9.292;2023-11-22T01:13:48;5.35;;;3.45;;
73642;SDS011;61938;48.652;9.292;2023-11-22T01:16:13;5.65;;;3.67;;
73642;SDS011;61938;48.652;9.292;2023-11-22T01:18:39;5.90;;;3.17;;
73642;SDS011;61938;48.652;9.292;2023-11-22T01:21:04;6.43;;;3.05;;
73642;SDS011;61938;48.652;9.292;2023-11-22T01:23:33;8.02;;;4.20;;
73642;SDS011;61938;48.652;9.292;2023-11-22T01:25:58;6.88;;;4.72;;
73642;SDS011;61938;48.652;9.292;2023-11-22T01:28:27;7.00;;;4.90;;
73642;SDS011;61938;48.652;9.292;2023-11-22T01:30:53;6.72;;;4.70;;
73642;SDS011;61938;48.652;9.292;2023-11-22T01:33:20;8.63;;;5.03;;
73642;SDS011;61938;48.652;9.292;2023-11-22T01:35:46;8.38;;;4.93;;
73642;SDS011;61938;48.652;9.292;2023-11-22T01:38:11;9.80;;;5.25;;
73642;SDS011;61938;48.652;9.292;2023-11-22T01:40:43;7.80;;;5.10;;
73642;SDS011;61938;48.652;9.292;2023-11-22T01:43:16;7.47;;;4.50;;
73642;SDS011;61938;48.652;9.292;2023-11-22T01:45:43;7.88;;;4.90;;
73642;SDS011;61938;48.652;9.292;2023-11-22T01:48:10;7.95;;;4.82;;
73642;SDS011;61938;48.652;9.292;2023-11-22T01:50:37;7.07;;;4.00;;
73642;SDS011;61938;48.652;9.292;2023-11-22T01:53:05;6.80;;;4.25;;
73642;SDS011;61938;48.652;9.292;2023-11-22T01:55:30;8.60;;;4.38;;
73642;SDS011;61938;48.652;9.292;2023-11-22T01:57:57;11.40;;;5.68;;
73642;SDS011;61938;48.652;9.292;2023-11-22T02:00:23;6.32;;;4.15;;
73642;SDS011;61938;48.652;9.292;2023-11-22T02:02:51;10.38;;;4.78;;
73642;SDS011;61938;48.652;9.292;2023-11-22T02:05:16;7.75;;;4.60;;
73642;SDS011;61938;48.652;9.292;2023-11-22T02:07:43;9.38;;;5.32;;
73642;SDS011;61938;48.652;9.292;2023-11-22T02:10:08;6.80;;;4.68;;
73642;SDS011;61938;48.652;9.292;2023-11-22T02:12:34;7.55;;;4.60;;
73642;SDS011;61938;48.652;9.292;2023-11-22T02:15:00;7.88;;;4.43;;
73642;SDS011;61938;48.652;9.292;2023-11-22T02:17:27;6.38;;;4.22;;
73642;SDS011;61938;48.652;9.292;2023-11-22T02:19:54;9.68;;;4.70;;
73642;SDS011;61938;48.652;9.292;2023-11-22T02:22:19;10.98;;;4.90;;
73642;SDS011;61938;48.652;9.292;2023-11-22T02:24:45;10.57;;;5.07;;
73642;SDS011;61938;48.652;9.292;2023-11-22T02:27:10;8.80;;;5.32;;
73642;SDS011;61938;48.652;9.292;2023-11-22T02:29:36;10.57;;;4.85;;
73642;SDS011;61938;48.652;9.292;2023-11-22T02:32:01;8.77;;;5.32;;
73642;SDS011;61938;48.652;9.292;2023-11-22T02:34:27;7.32;;;4.45;;
73642;SDS011;61938;48.652;9.292;2023-11-22T02:36:52;7.45;;;4.32;;
73642;SDS011;61938;48.652;9.292;2023-11-22T02:39:18;9.82;;;5.38;;
73642;SDS011;61938;48.652;9.292;2023-11-22T02:41:43;8.15;;;5.15;;
73642;SDS011;61938;48.652;9.292;2023-11-22T02:44:09;8.60;;;4.97;;
73642;SDS011;61938;48.652;9.292;2023-11-22T02:46:35;9.95;;;5.78;;
73642;SDS011;61938;48.652;9.292;2023-11-22T02:49:01;10.57;;;6.13;;
73642;SDS011;61938;48.652;9.292;2023-11-22T02:51:26;15.48;;;5.95;;
73642;SDS011;61938;48.652;9.292;2023-11-22T02:53:53;9.98;;;5.45;;
73642;SDS011;61938;48.652;9.292;2023-11-22T02:56:19;9.45;;;4.88;;
73642;SDS011;61938;48.652;9.292;2023-11-22T02:58:44;9.95;;;5.18;;
73642;SDS011;61938;48.652;9.292;2023-11-22T03:01:10;8.10;;;4.90;;
73642;SDS011;61938;48.652;9.292;2023-11-22T03:03:36;9.30;;;5.25;;
73642;SDS011;61938;48.652;9.292;2023-11-22T03:06:01;9.02;;;5.20;;
73642;SDS011;61938;48.652;9.292;2023-11-22T03:08:27;8.35;;;4.70;;
73642;SDS011;61938;48.652;9.292;2023-11-22T03:10:53;9.15;;;4.93;;
73642;SDS011;61938;48.652;9.292;2023-11-22T03:13:20;9.88;;;4.95;;
73642;SDS011;61938;48.652;9.292;2023-11-22T03:15:45;8.52;;;5.10;;
73642;SDS011;61938;48.652;9.292;2023-11-22T03:18:11;9.48;;;5.38;;
73642;SDS011;61938;48.652;9.292;2023-11-22T03:20:37;10.48;;;5.57;;
73642;SDS011;61938;48.652;9.292;2023-11-22T03:23:03;8.48;;;5.15;;
73642;SDS011;61938;48.652;9.292;2023-11-22T03:25:29;12.90;;;5.82;;
73642;SDS011;61938;48.652;9.292;2023-11-22T03:27:55;9.05;;;5.25;;
73642;SDS011;61938;48.652;9.292;2023-11-22T03:30:21;9.63;;;5.13;;
73642;SDS011;61938;48.652;9.292;2023-11-22T03:32:47;13.82;;;6.05;;
73642;SDS011;61938;48.652;9.292;2023-11-22T03:35:14;10.45;;;5.72;;
73642;SDS011;61938;48.652;9.292;2023-11-22T03:37:41;11.45;;;6.25;;
73642;SDS011;61938;48.652;9.292;2023-11-22T03:40:07;9.27;;;5.45;;
73642;SDS011;61938;48.652;9.292;2023-11-22T03:42:35;11.43;;;5.28;;
73642;SDS011;61938;48.652;9.292;2023-11-22T03:45:02;9.15;;;5.45;;
73642;SDS011;61938;48.652;9.292;2023-11-22T03:47:28;11.15;;;5.65;;
73642;SDS011;61938;48.652;9.292;2023-11-22T03:49:53;9.85;;;5.15;;
73642;SDS011;61938;48.652;9.292;2023-11-22T03:52:19;11.63;;;5.90;;
73642;SDS011;61938;48.652;9.292;2023-11-22T03:54:44;8.80;;;4.45;;
73642;SDS011;61938;48.652;9.292;2023-11-22T03:57:10;8.77;;;4.80;;
73642;SDS011;61938;48.652;9.292;2023-11-22T03:59:35;9.85;;;5.07;;
73642;SDS011;61938;48.652;9.292;2023-11-22T04:02:01;8.85;;;4.90;;
73642;SDS011;61938;48.652;9.292;2023-11-22T04:04:27;9.13;;;4.65;;
73642;SDS011;61938;48.652;9.292;2023-11-22T04:06:52;9.35;;;4.90;;
73642;SDS011;61938;48.652;9.292;2023-11-22T04:09:18;10.70;;;5.57;;
73642;SDS011;61938;48.652;9.292;2023-11-22T04:11:45;10.80;;;5.32;;
73642;SDS011;61938;48.652;9.292;2023-11-22T04:14:11;9.80;;;5.38;;
73642;SDS011;61938;48.652;9.292;2023-11-22T04:16:37;10.23;;;5.00;;
73642;SDS011;61938;48.652;9.292;2023-11-22T04:19:02;9.50;;;5.47;;
73642;SDS011;61938;48.652;9.292;2023-11-22T04:21:28;8.77;;;4.65;;
73642;SDS011;61938;48.652;9.292;2023-11-22T04:23:54;9.70;;;4.60;;
73642;SDS011;61938;48.652;9.292;2023-11-22T04:26:19;13.13;;;5.57;;
73642;SDS011;61938;48.652;9.292;2023-11-22T04:28:45;14.52;;;4.97;;
73642;SDS011;61938;48.652;9.292;2023-11-22T04:31:11;10.95;;;4.93;;
73642;SDS011;61938;48.652;9.292;2023-11-22T04:33:37;11.43;;;5.63;;
73642;SDS011;61938;48.652;9.292;2023-11-22T04:36:03;9.43;;;4.40;;
73642;SDS011;61938;48.652;9.292;2023-11-22T04:38:29;10.48;;;5.25;;
73642;SDS011;61938;48.652;9.292;2023-11-22T04:40:54;9.32;;;5.22;;
73642;SDS011;61938;48.652;9.292;2023-11-22T04:43:20;11.27;;;4.88;;
73642;SDS011;61938;48.652;9.292;2023-11-22T04:45:46;8.13;;;4.55;;
73642;SDS011;61938;48.652;9.292;2023-11-22T04:48:11;8.27;;;4.70;;
73642;SDS011;61938;48.652;9.292;2023-11-22T04:50:39;9.65;;;5.03;;
73642;SDS011;61938;48.652;9.292;2023-11-22T04:53:05;9.38;;;5.00;;
73642;SDS011;61938;48.652;9.292;2023-11-22T04:55:31;10.07;;;5.72;;
73642;SDS011;61938;48.652;9.292;2023-11-22T04:57:56;9.77;;;4.75;;
73642;SDS011;61938;48.652;9.292;2023-11-22T05:00:22;9.93;;;5.20;;
73642;SDS011;61938;48.652;9.292;2023-11-22T05:02:50;9.48;;;5.20;;
73642;SDS011;61938;48.652;9.292;2023-11-22T05:05:16;9.57;;;5.03;;
73642;SDS011;61938;48.652;9.292;2023-11-22T05:07:41;9.80;;;5.28;;
73642;SDS011;61938;48.652;9.292;2023-11-22T05:10:07;10.68;;;5.50;;
73642;SDS011;61938;48.652;9.292;2023-11-22T05:12:36;9.02;;;5.28;;
73642;SDS011;61938;48.652;9.292;2023-11-22T05:15:02;10.20;;;4.90;;
73642;SDS011;61938;48.652;9.292;2023-11-22T05:17:28;9.98;;;4.95;;
73642;SDS011;61938;48.652;9.292;2023-11-22T05:19:53;12.10;;;5.40;;
73642;SDS011;61938;48.652;9.292;2023-11-22T05:22:19;10.18;;;4.85;;
73642;SDS011;61938;48.652;9.292;2023-11-22T05:24:44;15.05;;;5.68;;
73642;SDS011;61938;48.652;9.292;2023-11-22T05:27:10;10.30;;;5.18;;
73642;SDS011;61938;48.652;9.292;2023-11-22T05:29:35;10.13;;;5.50;;
73642;SDS011;61938;48.652;9.292;2023-11-22T05:32:01;8.52;;;5.15;;
73642;SDS011;61938;48.652;9.292;2023-11-22T05:34:27;12.68;;;5.70;;
73642;SDS011;61938;48.652;9.292;2023-11-22T05:36:53;8.38;;;5.05;;
73642;SDS011;61938;48.652;9.292;2023-11-22T05:39:20;13.63;;;5.53;;
73642;SDS011;61938;48.652;9.292;2023-11-22T05:41:47;8.43;;;4.90;;
73642;SDS011;61938;48.652;9.292;2023-11-22T05:44:13;9.60;;;5.38;;
73642;SDS011;61938;48.652;9.292;2023-11-22T05:46:39;9.27;;;5.20;;
73642;SDS011;61938;48.652;9.292;2023-11-22T05:49:04;8.80;;;4.70;;
73642;SDS011;61938;48.652;9.292;2023-11-22T05:51:30;9.75;;;5.10;;
73642;SDS011;61938;48.652;9.292;2023-11-22T05:53:56;8.48;;;4.72;;
73642;SDS011;61938;48.652;9.292;2023-11-22T05:56:21;8.07;;;4.70;;
73642;SDS011;61938;48.652;9.292;2023-11-22T05:58:47;9.85;;;5.03;;
73642;SDS011;61938;48.652;9.292;2023-11-22T06:01:13;9.98;;;5.43;;
73642;SDS011;61938;48.652;9.292;2023-11-22T06:03:38;8.25;;;4.53;;
73642;SDS011;61938;48.652;9.292;2023-11-22T06:06:04;8.77;;;5.00;;
73642;SDS011;61938;48.652;9.292;2023-11-22T06:08:30;8.93;;;4.85;;
73642;SDS011;61938;48.652;9.292;2023-11-22T06:10:56;9.68;;;5.32;;
73642;SDS011;61938;48.652;9.292;2023-11-22T06:13:23;13.10;;;4.97;;
73642;SDS011;61938;48.652;9.292;2023-11-22T06:15:48;8.60;;;4.82;;
73642;SDS011;61938;48.652;9.292;2023-11-22T06:18:14;7.57;;;4.47;;
73642;SDS011;61938;48.652;9.292;2023-11-22T06:20:40;9.38;;;4.82;;
73642;SDS011;61938;48.652;9.292;2023-11-22T06:23:06;8.98;;;5.00;;
73642;SDS011;61938;48.652;9.292;2023-11-22T06:25:32;8.70;;;4.35;;
73642;SDS011;61938;48.652;9.292;2023-11-22T06:27:58;8.57;;;4.85;;
73642;SDS011;61938;48.652;9.292;2023-11-22T06:30:23;10.05;;;5.05;;
73642;SDS011;61938;48.652;9.292;2023-11-22T06:32:50;9.88;;;4.57;;
73642;SDS011;61938;48.652;9.292;2023-11-22T06:35:16;10.82;;;4.90;;
73642;SDS011;61938;48.652;9.292;2023-11-22T06:37:42;13.98;;;5.07;;
73642;SDS011;61938;48.652;9.292;2023-11-22T06:40:08;9.77;;;4.43;;
73642;SDS011;61938;48.652;9.292;2023-11-22T06:42:37;12.35;;;5.50;;
73642;SDS011;61938;48.652;9.292;2023-11-22T06:45:04;8.27;;;4.57;;
73642;SDS011;61938;48.652;9.292;2023-11-22T06:47:31;9.63;;;4.90;;
73642;SDS011;61938;48.652;9.292;2023-11-22T06:49:57;8.57;;;4.75;;
73642;SDS011;61938;48.652;9.292;2023-11-22T06:52:23;9.18;;;4.85;;
73642;SDS011;61938;48.652;9.292;2023-11-22T06:54:48;9.38;;;5.18;;
73642;SDS011;61938;48.652;9.292;2023-11-22T06:57:14;9.38;;;4.80;;
73642;SDS011;61938;48.652;9.292;2023-11-22T06:59:40;10.65;;;5.60;;
73642;SDS011;61938;48.652;9.292;2023-11-22T07:02:06;11.50;;;5.57;;
73642;SDS011;61938;48.652;9.292;2023-11-22T07:04:32;10.43;;;5.53;;
73642;SDS011;61938;48.652;9.292;2023-11-22T07:06:57;9.88;;;5.68;;
73642;SDS011;61938;48.652;9.292;2023-11-22T07:09:23;10.05;;;5.13;;
73642;SDS011;61938;48.652;9.292;2023-11-22T07:11:48;8.18;;;5.07;;
73642;SDS011;61938;48.652;9.292;2023-11-22T07:14:14;10.23;;;5.65;;
73642;SDS011;61938;48.652;9.292;2023-11-22T07:16:41;12.63;;;6.07;;
73642;SDS011;61938;48.652;9.292;2023-11-22T07:19:07;11.07;;;5.82;;
73642;SDS011;61938;48.652;9.292;2023-11-22T07:21:32;11.10;;;5.75;;
73642;SDS011;61938;48.652;9.292;2023-11-22T07:23:58;19.75;;;8.85;;
73642;SDS011;61938;48.652;9.292;2023-11-22T07:26:24;13.23;;;6.47;;
73642;SDS011;61938;48.652;9.292;2023-11-22T07:28:53;12.95;;;6.43;;
73642;SDS011;61938;48.652;9.292;2023-11-22T07:31:19;12.98;;;6.53;;
73642;SDS011;61938;48.652;9.292;2023-11-22T07:33:45;10.55;;;5.75;;
73642;SDS011;61938;48.652;9.292;2023-11-22T07:36:11;13.45;;;5.72;;
73642;SDS011;61938;48.652;9.292;2023-11-22T07:38:39;13.68;;;5.65;;
73642;SDS011;61938;48.652;9.292;2023-11-22T07:41:06;12.02;;;6.25;;
73642;SDS011;61938;48.652;9.292;2023-11-22T07:43:32;13.02;;;5.85;;
73642;SDS011;61938;48.652;9.292;2023-11-22T07:45:57;10.32;;;5.63;;
73642;SDS011;61938;48.652;9.292;2023-11-22T07:48:24;14.85;;;6.50;;
73642;SDS011;61938;48.652;9.292;2023-11-22T07:50:50;13.02;;;5.63;;
73642;SDS011;61938;48.652;9.292;2023-11-22T07:53:16;12.73;;;6.18;;
73642;SDS011;61938;48.652;9.292;2023-11-22T07:55:42;9.93;;;5.25;;
73642;SDS011;61938;48.652;9.292;2023-11-22T07:58:08;8.65;;;5.50;;
73642;SDS011;61938;48.652;9.292;2023-11-22T08:00:34;11.77;;;5.97;;
73642;SDS011;61938;48.652;9.292;2023-11-22T08:03:00;10.32;;;5.53;;
73642;SDS011;61938;48.652;9.292;2023-11-22T08:05:29;9.82;;;5.13;;
73642;SDS011;61938;48.652;9.292;2023-11-22T08:07:59;15.55;;;5.88;;
73642;SDS011;61938;48.652;9.292;2023-11-22T08:10:26;10.63;;;5.63;;
73642;SDS011;61938;48.652;9.292;2023-11-22T08:12:52;10.05;;;5.32;;
73642;SDS011;61938;48.652;9.292;2023-11-22T08:15:18;15.85;;;5.30;;
73642;SDS011;61938;48.652;9.292;2023-11-22T08:17:45;17.35;;;5.60;;
73642;SDS011;61938;48.652;9.292;2023-11-22T08:20:11;8.68;;;4.78;;
73642;SDS011;61938;48.652;9.292;2023-11-22T08:22:38;8.50;;;4.88;;
73642;SDS011;61938;48.652;9.292;2023-11-22T08:25:05;11.07;;;5.15;;
73642;SDS011;61938;48.652;9.292;2023-11-22T08:27:33;10.63;;;5.18;;
73642;SDS011;61938;48.652;9.292;2023-11-22T08:29:58;8.05;;;4.75;;
73642;SDS011;61938;48.652;9.292;2023-11-22T08:32:29;10.85;;;4.68;;
73642;SDS011;61938;48.652;9.292;2023-11-22T08:34:56;12.57;;;5.03;;
73642;SDS011;61938;48.652;9.292;2023-11-22T08:37:21;15.63;;;4.97;;
73642;SDS011;61938;48.652;9.292;2023-11-22T08:39:47;9.82;;;5.13;;
73642;SDS011;61938;48.652;9.292;2023-11-22T08:42:13;9.57;;;4.13;;
73642;SDS011;61938;48.652;9.292;2023-11-22T08:44:39;11.15;;;5.38;;
73642;SDS011;61938;48.652;9.292;2023-11-22T08:47:05;10.05;;;5.35;;
73642;SDS011;61938;48.652;9.292;2023-11-22T08:49:31;11.10;;;5.68;;
73642;SDS011;61938;48.652;9.292;2023-11-22T08:51:58;12.73;;;6.20;;
73642;SDS011;61938;48.652;9.292;2023-11-22T08:54:24;14.18;;;6.95;;
73642;SDS011;61938;48.652;9.292;2023-11-22T08:56:53;11.77;;;4.70;;
73642;SDS011;61938;48.652;9.292;2023-11-22T08:59:21;13.68;;;5.65;;
73642;SDS011;61938;48.652;9.292;2023-11-22T09:01:47;10.48;;;5.50;;
73642;SDS011;61938;48.652;9.292;2023-11-22T09:04:12;7.82;;;4.63;;
73642;SDS011;61938;48.652;9.292;2023-11-22T09:06:38;12.05;;;5.50;;
73642;SDS011;61938;48.652;9.292;2023-11-22T09:09:04;13.65;;;6.28;;
73642;SDS011;61938;48.652;9.292;2023-11-22T09:11:30;10.15;;;5.03;;
73642;SDS011;61938;48.652;9.292;2023-11-22T09:13:56;12.10;;;6.50;;
73642;SDS011;61938;48.652;9.292;2023-11-22T09:16:22;10.27;;;5.70;;
73642;SDS011;61938;48.652;9.292;2023-11-22T09:18:50;11.88;;;6.10;;
73642;SDS011;61938;48.652;9.292;2023-11-22T09:21:16;11.75;;;5.43;;
73642;SDS011;61938;48.652;9.292;2023-11-22T09:23:45;12.35;;;6.28;;
73642;SDS011;61938;48.652;9.292;2023-11-22T09:26:12;12.60;;;6.63;;
73642;SDS011;61938;48.652;9.292;2023-11-22T09:28:39;20.10;;;7.13;;
73642;SDS011;61938;48.652;9.292;2023-11-22T09:31:05;13.98;;;6.65;;
73642;SDS011;61938;48.652;9.292;2023-11-22T09:33:31;13.32;;;6.40;;
73642;SDS011;61938;48.652;9.292;2023-11-22T09:35:57;11.23;;;5.72;;
73642;SDS011;61938;48.652;9.292;2023-11-22T09:38:23;10.77;;;6.32;;
73642;SDS011;61938;48.652;9.292;2023-11-22T09:40:49;12.25;;;6.38;;
73642;SDS011;61938;48.652;9.292;2023-11-22T09:43:16;13.50;;;6.55;;
73642;SDS011;61938;48.652;9.292;2023-11-22T09:45:46;10.85;;;6.35;;
73642;SDS011;61938;48.652;9.292;2023-11-22T09:48:16;12.73;;;6.47;;
73642;SDS011;61938;48.652;9.292;2023-11-22T09:56:08;13.18;;;6.85;;
73642;SDS011;61938;48.652;9.292;2023-11-22T09:58:35;17.40;;;7.65;;
73642;SDS011;61938;48.652;9.292;2023-11-22T10:01:03;17.55;;;7.50;;
73642;SDS011;61938;48.652;9.292;2023-11-22T10:03:29;16.67;;;6.75;;
73642;SDS011;61938;48.652;9.292;2023-11-22T10:05:55;14.45;;;6.80;;
73642;SDS011;61938;48.652;9.292;2023-11-22T10:08:23;14.02;;;7.25;;
73642;SDS011;61938;48.652;9.292;2023-11-22T10:10:50;17.25;;;8.38;;
73642;SDS011;61938;48.652;9.292;2023-11-22T10:13:16;12.18;;;6.90;;
73642;SDS011;61938;48.652;9.292;2023-11-22T10:15:45;13.98;;;6.85;;
73642;SDS011;61938;48.652;9.292;2023-11-22T10:18:13;14.32;;;6.35;;
73642;SDS011;61938;48.652;9.292;2023-11-22T10:20:40;13.93;;;6.90;;
73642;SDS011;61938;48.652;9.292;2023-11-22T10:23:09;12.80;;;6.75;;
73642;SDS011;61938;48.652;9.292;2023-11-22T10:25:36;17.33;;;7.53;;
73642;SDS011;61938;48.652;9.292;2023-11-22T10:28:16;17.63;;;7.38;;
73642;SDS011;61938;48.652;9.292;2023-11-22T10:30:48;17.65;;;7.65;;
73642;SDS011;61938;48.652;9.292;2023-11-22T10:33:20;25.38;;;8.25;;
73642;SDS011;61938;48.652;9.292;2023-11-22T10:35:50;17.40;;;7.40;;
73642;SDS011;61938;48.652;9.292;2023-11-22T10:38:19;21.42;;;7.20;;
73642;SDS011;61938;48.652;9.292;2023-11-22T10:40:45;14.95;;;7.82;;
73642;SDS011;61938;48.652;9.292;2023-11-22T10:43:12;14.60;;;7.40;;
73642;SDS011;61938;48.652;9.292;2023-11-22T10:45:42;13.35;;;7.32;;
73642;SDS011;61938;48.652;9.292;2023-11-22T10:48:14;14.50;;;7.65;;
73642;SDS011;61938;48.652;9.292;2023-11-22T10:50:41;17.08;;;7.43;;
73642;SDS011;61938;48.652;9.292;2023-11-22T10:53:07;15.50;;;7.07;;
73642;SDS011;61938;48.652;9.292;2023-11-22T10:55:47;13.63;;;6.72;;
73642;SDS011;61938;48.652;9.292;2023-11-22T10:58:13;13.40;;;6.70;;
73642;SDS011;61938;48.652;9.292;2023-11-22T11:00:40;11.68;;;6.80;;
73642;SDS011;61938;48.652;9.292;2023-11-22T11:03:10;13.52;;;6.47;;
73642;SDS011;61938;48.652;9.292;2023-11-22T11:05:41;13.35;;;6.88;;
73642;SDS011;61938;48.652;9.292;2023-11-22T11:08:12;14.13;;;6.75;;
73642;SDS011;61938;48.652;9.292;2023-11-22T11:10:42;15.82;;;7.50;;
73642;SDS011;61938;48.652;9.292;2023-11-22T11:13:12;16.45;;;6.32;;
73642;SDS011;61938;48.652;9.292;2023-11-22T11:15:38;12.35;;;6.80;;
73642;SDS011;61938;48.652;9.292;2023-11-22T11:18:09;19.15;;;8.38;;
73642;SDS011;61938;48.652;9.292;2023-11-22T11:23:13;15.82;;;7.40;;
73642;SDS011;61938;48.652;9.292;2023-11-22T11:25:39;14.45;;;7.40;;
73642;SDS011;61938;48.652;9.292;2023-11-22T11:28:09;12.82;;;6.70;;
73642;SDS011;61938;48.652;9.292;2023-11-22T11:30:43;14.27;;;6.47;;
73642;SDS011;61938;48.652;9.292;2023-11-22T11:33:11;12.63;;;7.18;;
73642;SDS011;61938;48.652;9.292;2023-11-22T11:35:47;19.08;;;7.55;;
73642;SDS011;61938;48.652;9.292;2023-11-22T11:38:14;11.60;;;6.97;;
73642;SDS011;61938;48.652;9.292;2023-11-22T11:40:42;15.90;;;8.55;;
73642;SDS011;61938;48.652;9.292;2023-11-22T11:43:09;13.30;;;7.35;;
73642;SDS011;61938;48.652;9.292;2023-11-22T11:45:37;14.48;;;7.47;;
73642;SDS011;61938;48.652;9.292;2023-11-22T11:48:04;12.35;;;7.15;;
73642;SDS011;61938;48.652;9.292;2023-11-22T11:50:31;12.63;;;7.40;;
73642;SDS011;61938;48.652;9.292;2023-11-22T11:52:56;12.55;;;6.97;;
73642;SDS011;61938;48.652;9.292;2023-11-22T11:55:22;15.32;;;7.72;;
73642;SDS011;61938;48.652;9.292;2023-11-22T11:57:47;16.40;;;8.40;;
73642;SDS011;61938;48.652;9.292;2023-11-22T12:00:13;15.35;;;8.48;;
73642;SDS011;61938;48.652;9.292;2023-11-22T12:02:42;17.25;;;8.52;;
73642;SDS011;61938;48.652;9.292;2023-11-22T12:05:08;19.98;;;6.45;;
73642;SDS011;61938;48.652;9.292;2023-11-22T12:07:37;14.00;;;7.32;;
73642;SDS011;61938;48.652;9.292;2023-11-22T12:10:03;13.30;;;7.13;;
73642;SDS011;61938;48.652;9.292;2023-11-22T12:12:31;13.70;;;7.32;;
73642;SDS011;61938;48.652;9.292;2023-11-22T12:14:57;18.65;;;8.15;;
73642;SDS011;61938;48.652;9.292;2023-11-22T12:17:24;15.02;;;7.65;;
73642;SDS011;61938;48.652;9.292;2023-11-22T12:19:51;15.90;;;7.97;;
73642;SDS011;61938;48.652;9.292;2023-11-22T12:22:17;19.42;;;8.77;;
73642;SDS011;61938;48.652;9.292;2023-11-22T12:24:43;16.45;;;8.60;;
73642;SDS011;61938;48.652;9.292;2023-11-22T12:27:11;16.23;;;8.30;;
73642;SDS011;61938;48.652;9.292;2023-11-22T12:29:37;17.98;;;8.40;;
73642;SDS011;61938;48.652;9.292;2023-11-22T12:32:04;16.23;;;8.85;;
73642;SDS011;61938;48.652;9.292;2023-11-22T12:34:31;17.08;;;8.90;;
73642;SDS011;61938;48.652;9.292;2023-11-22T12:36:58;17.95;;;8.88;;
73642;SDS011;61938;48.652;9.292;2023-11-22T12:39:24;15.50;;;8.02;;
73642;SDS011;61938;48.652;9.292;2023-11-22T12:41:50;19.30;;;8.57;;
73642;SDS011;61938;48.652;9.292;2023-11-22T12:44:19;21.42;;;8.55;;
73642;SDS011;61938;48.652;9.292;2023-11-22T12:49:23;15.48;;;7.57;;
73642;SDS011;61938;48.652;9.292;2023-11-22T12:51:52;17.50;;;9.23;;
73642;SDS011;61938;48.652;9.292;2023-11-22T12:54:18;25.55;;;9.77;;
73642;SDS011;61938;48.652;9.292;2023-11-22T12:56:51;17.08;;;8.85;;
73642;SDS011;61938;48.652;9.292;2023-11-22T12:59:23;21.55;;;8.93;;
73642;SDS011;61938;48.652;9.292;2023-11-22T13:01:49;19.35;;;8.93;;
73642;SDS011;61938;48.652;9.292;2023-11-22T13:04:15;17.77;;;8.50;;
73642;SDS011;61938;48.652;9.292;2023-11-22T13:06:41;16.98;;;7.97;;
73642;SDS011;61938;48.652;9.292;2023-11-22T13:09:07;16.58;;;8.52;;
73642;SDS011;61938;48.652;9.292;2023-11-22T13:11:39;16.52;;;8.77;;
73642;SDS011;61938;48.652;9.292;2023-11-22T13:14:05;18.67;;;9.55;;
73642;SDS011;61938;48.652;9.292;2023-11-22T13:16:31;18.10;;;9.52;;
73642;SDS011;61938;48.652;9.292;2023-11-22T13:18:59;17.48;;;9.68;;
73642;SDS011;61938;48.652;9.292;2023-11-22T13:21:24;22.95;;;10.10;;
73642;SDS011;61938;48.652;9.292;2023-11-22T13:23:50;17.95;;;9.35;;
73642;SDS011;61938;48.652;9.292;2023-11-22T13:26:15;19.58;;;10.63;;
73642;SDS011;61938;48.652;9.292;2023-11-22T13:28:41;20.77;;;9.65;;
73642;SDS011;61938;48.652;9.292;2023-11-22T13:31:07;18.33;;;9.80;;
73642;SDS011;61938;48.652;9.292;2023-11-22T13:33:33;18.30;;;9.52;;
73642;SDS011;61938;48.652;9.292;2023-11-22T13:35:58;19.60;;;9.45;;
73642;SDS011;61938;48.652;9.292;2023-11-22T13:38:24;19.00;;;9.20;;
73642;SDS011;61938;48.652;9.292;2023-11-22T13:40:50;21.83;;;9.13;;
73642;SDS011;61938;48.652;9.292;2023-11-22T13:43:16;15.85;;;8.30;;
73642;SDS011;61938;48.652;9.292;2023-11-22T13:45:43;15.13;;;8.32;;
73642;SDS011;61938;48.652;9.292;2023-11-22T13:48:10;15.77;;;8.07;;
73642;SDS011;61938;48.652;9.292;2023-11-22T13:50:36;20.45;;;9.63;;
73642;SDS011;61938;48.652;9.292;2023-11-22T13:53:02;17.20;;;8.68;;
73642;SDS011;61938;48.652;9.292;2023-11-22T13:55:28;20.42;;;10.48;;
73642;SDS011;61938;48.652;9.292;2023-11-22T13:57:55;20.63;;;9.02;;
73642;SDS011;61938;48.652;9.292;2023-11-22T14:00:23;14.93;;;8.55;;
73642;SDS011;61938;48.652;9.292;2023-11-22T14:02:55;16.35;;;8.18;;
73642;SDS011;61938;48.652;9.292;2023-11-22T14:05:21;17.88;;;8.55;;
73642;SDS011;61938;48.652;9.292;2023-11-22T14:07:47;16.52;;;8.20;;
73642;SDS011;61938;48.652;9.292;2023-11-22T14:10:13;20.67;;;8.70;;
73642;SDS011;61938;48.652;9.292;2023-11-22T14:12:41;16.13;;;8.15;;
73642;SDS011;61938;48.652;9.292;2023-11-22T14:15:07;18.35;;;8.35;;
73642;SDS011;61938;48.652;9.292;2023-11-22T14:17:33;18.77;;;8.90;;
73642;SDS011;61938;48.652;9.292;2023-11-22T14:19:59;15.77;;;8.40;;
73642;SDS011;61938;48.652;9.292;2023-11-22T14:22:25;14.88;;;7.68;;
73642;SDS011;61938;48.652;9.292;2023-11-22T14:24:52;16.17;;;7.82;;
73642;SDS011;61938;48.652;9.292;2023-11-22T14:27:18;18.75;;;8.43;;
73642;SDS011;61938;48.652;9.292;2023-11-22T14:29:44;14.85;;;8.27;;
73642;SDS011;61938;48.652;9.292;2023-11-22T14:32:13;14.93;;;8.45;;
73642;SDS011;61938;48.652;9.292;2023-11-22T14:34:39;16.40;;;8.57;;
73642;SDS011;61938;48.652;9.292;2023-11-22T14:37:08;17.77;;;8.52;;
73642;SDS011;61938;48.652;9.292;2023-11-22T14:39:37;18.70;;;8.02;;
73642;SDS011;61938;48.652;9.292;2023-11-22T14:42:03;19.80;;;8.23;;
73642;SDS011;61938;48.652;9.292;2023-11-22T14:44:30;19.17;;;9.15;;